Weather observations for the past three days for
Albert Whitted Airport
Metric (Imperial)
Date Time (edt) Wind (kph) Vis. (km) Weather Sky Cond. Temperature (ºC) Relative Humidity Wind Chill (°C) Heat Index (°C) Pressure Precipitation (cm)
Air Dwpt 6 hour altimeter (cm) sea level (mb) 1 hr 3 hr 6 hr
Max. Min.
31 12:53 NE 6 16.09 Fair CLR 31.7 25.6 70% 40 76.3 1017.2
31 11:53 E 7 16.09 Fair CLR 30 25.6 77% 37 76.33 1017.6
31 10:53 E 9 16.09 Fair CLR 28.9 25.6 82% 35 76.3 1017.2
31 09:53 E 11 16.09 Fair CLR 28.3 25.6 85% 34 76.3 1017.2
31 08:53 NE 13 16.09 A Few Clouds FEW012 27.2 25.6 91% 31 76.3 1017.1
31 07:53 E 7 16.09 Fair CLR 27.2 25.6 27.2 26.1 91% 31 76.25 1016.5
31 06:53 SE 11 16.09 Fair CLR 26.1 25 94% 28 76.2 1015.7
31 05:53 SE 11 16.09 Fair CLR 26.1 25 94% 28 76.17 1015.3
31 04:53 SE 17 16.09 Fair CLR 26.7 24.4 87% 30 76.15 1015.3
31 03:53 E 15 16.09 A Few Clouds FEW110 26.7 25 90% 30 76.17 1015.3
31 02:53 SE 17 16.09 Fair CLR 27.2 23.9 82% 30 76.17 1015.6
31 01:53 E 20 16.09 Fair CLR 26.7 24.4 26.7 25.6 87% 30 76.23 1016.0
31 00:53 E 15 16.09 Fair CLR 26.1 23.9 88% 28 76.25 1016.4
30 23:53 E 19 16.09 Fair CLR 26.1 23.9 88% 28 76.25 1016.5
30 22:53 E 19 16.09 A Few Clouds FEW014 26.1 24.4 90% 28 76.28 1016.7
30 21:53 E 20 16.09 Fair CLR 26.7 23.9 85% 29 76.28 1016.8
30 20:53 E 11 16.09 Fair CLR 26.1 23.9 88% 28 76.23 1016.3
30 19:53 E 9 16.09 Light Rain FEW065 BKN100 25.6 23.9 33.9 24.4 90% 27 76.23 1016.1 0.03 0.81
30 18:53 S 9 16.09 Light Rain FEW065 BKN085 OVC110 25.6 23.9 90% 27 76.2 1015.7 0.13
30 17:53 S 13 16.09 Thunderstorm Light Rain FEW100 SCT120 25.6 23.9 90% 27 76.17 1015.6 0.66
30 16:53 SE 50 G 69 9.66 Thunderstorm Light Rain Fog/Mist and Windy FEW016 SCT035 BKN047 26.1 24.4 90% 28 76.15 1015.2
30 15:53 Calm 16.09 Partly Cloudy SCT026 33.3 23.3 56% 39 76.15 1015.1
30 14:53 Calm 16.09 Partly Cloudy SCT026 32.8 24.4 61% 39 76.2 1015.7
30 13:53 Calm 16.09 Partly Cloudy SCT040 31.7 25.6 31.7 26.7 70% 40 76.28 1016.7
30 12:53 NE 6 16.09 Fair CLR 31.1 25.6 73% 39 76.3 1017.2
30 11:53 NE 9 16.09 A Few Clouds FEW033 30 26.1 80% 38 76.35 1017.7
30 10:53 E 9 16.09 Fair CLR 28.3 25.6 85% 34 76.35 1018.0
30 09:53 NE 15 16.09 A Few Clouds FEW019 27.8 25.6 88% 33 76.35 1018.0
30 08:53 E 17 16.09 Partly Cloudy SCT011 27.2 25.6 91% 31 76.35 1017.7
30 07:53 E 15 16.09 A Few Clouds FEW011 26.7 25 26.7 25.6 90% 30 76.3 1017.1
30 06:53 E 13 16.09 A Few Clouds FEW015 26.1 24.4 90% 28 76.25 1016.6
30 05:53 SE 7 16.09 Fair CLR 25.6 23.9 90% 27 76.2 1015.8
30 04:53 SE 13 16.09 Fair CLR 26.1 23.9 88% 28 76.2 1016.0
30 03:53 E 19 16.09 Fair CLR 25.6 23.9 90% 27 76.25 1016.5
30 02:53 E 19 16.09 Fair CLR 26.1 23.3 85% 28 76.28 1016.7
30 01:53 E 15 16.09 Fair CLR 25.6 23.3 27.2 25 87% 27 76.28 1016.7 0.13
30 00:53 E 13 16.09 Fair CLR 26.1 23.3 85% 28 76.33 1017.4
29 23:53 E 19 16.09 Fair CLR 26.7 23.9 85% 29 76.3 1017.3
29 22:53 E 22 16.09 Fair CLR 26.7 23.9 85% 29 76.3 1017.2 0.13
29 21:53 E 28 16.09 Fair CLR 26.1 23.9 88% 28 76.33 1017.4
29 20:53 E 13 16.09 Partly Cloudy FEW085 SCT110 25.6 23.9 90% 27 76.17 1015.6 0.13
29 19:53 NE 7 8.05 Rain Fog/Mist SCT100 BKN120 25 23.9 34.4 23.9 94% 26 76.25 1016.4 0.2 1.4
29 18:53 SE 7 9.66 Thunderstorm in Vicinity Light Rain Fog/Mist FEW075 SCT100 BKN120 24.4 23.3 94% 24 76.25 1016.5 1.19
29 17:53 SE 41 G 57 12.87 Thunderstorm Light Rain and Breezy SCT023 BKN034 BKN050 26.7 23.9 85% 29 76.25 1016.5
29 16:53 NW 15 16.09 Thunderstorm in Vicinity CLR 32.2 25.6 68% 40 76.17 1015.4
29 15:53 E 7 16.09 Fair CLR 33.3 21.1 49% 37 76.2 1015.7
29 14:53 NE 6 16.09 Fair CLR 33.9 24.4 58% 41 76.2 1015.8
29 13:53 NE 6 16.09 Fair CLR 33.3 24.4 33.3 26.7 60% 40 76.3 1017.2
29 12:53 N 7 16.09 Fair CLR 31.7 25.6 70% 40 76.33 1017.5
29 11:53 Calm 16.09 Fair CLR 30.6 26.1 77% 39 76.35 1018.0
29 10:53 E 9 16.09 Fair CLR 28.9 25.6 82% 35 76.35 1017.9
29 09:53 E 6 16.09 Fair CLR 28.3 25 82% 33 76.33 1017.5
29 08:53 SE 7 16.09 Fair CLR 27.2 24.4 85% 31 76.35 1017.8
29 07:53 E 13 16.09 Fair CLR 26.7 24.4 27.2 26.7 87% 30 76.33 1017.4
29 06:53 E 13 16.09 Fair CLR 26.7 24.4 87% 30 76.28 1016.9
29 05:53 E 11 16.09 Fair CLR 26.7 23.9 85% 29 76.23 1016.1
29 04:53 E 13 16.09 Fair CLR 27.2 23.9 82% 30 76.23 1016.2
29 03:53 E 9 16.09 A Few Clouds FEW060 27.2 23.9 82% 30 76.23 1016.3
29 02:53 E 7 16.09 Partly Cloudy SCT065 26.7 23.9 85% 29 76.25 1016.4
29 01:53 E 9 16.09 Fair CLR 26.7 24.4 28.3 26.1 87% 30 76.28 1016.8
29 00:53 SE 13 16.09 Fair CLR 26.7 24.4 87% 30 76.3 1017.1
28 23:53 SE 15 16.09 Fair CLR 26.7 24.4 87% 30 76.3 1017.2
28 22:53 SE 17 16.09 Fair CLR 26.7 23.9 85% 29 76.3 1017.3
28 21:53 SE 15 16.09 Fair CLR 27.8 25 85% 32 76.28 1016.8
28 20:53 N 6 16.09 Fair CLR 27.8 24.4 82% 32 76.2 1015.7
28 19:53 NE 11 16.09 Fair CLR 28.3 24.4 31.7 27.8 79% 33 76.17 1015.3
28 18:53 N 7 16.09 Fair CLR 28.3 23.9 77% 32 76.17 1015.6
28 17:53 NE 11 16.09 Fair CLR 28.9 24.4 77% 34 76.17 1015.5
28 16:53 N 11 16.09 Fair CLR 28.3 23.9 77% 32 76.17 1015.5
28 15:53 W 19 16.09 A Few Clouds FEW033 31.1 24.4 68% 37 76.23 1016.2
28 14:53 SW 17 16.09 A Few Clouds FEW029 31.1 25 70% 38 76.23 1016.0
28 13:53 SE 7 16.09 A Few Clouds FEW029 30 25 30.6 22.8 75% 36 76.3 1017.3 2.57
Date Time (edt) Wind (kph) Vis. (km) Weather Sky Cond. Air Dwpt Max. Min. Relative Humidity Wind Chill (°C) Heat Index (°C) altimeter (cm) sea level (mb) 1 hr 3 hr 6 hr
6 hour
Temperature (ºC) Pressure Precipitation (cm)